Time;durP1;ratioP1;P1;durP2;ratioP2;P2;SDS_P1;SDS_P2;PMS_P1;PMS_P2;Temp;Humidity;BMP_temperature;BMP_pressure;BME280_temperature;BME280_humidity;BME280_pressure;Samples;Min_cycle;Max_cycle;Signal;HPM_P1;HPM_P2
2023/08/20 00:02:00;;;;;;;5.35;3.05;;;15.60;61.30;;;;;;6139636;23;20161;-91
2023/08/20 00:04:30;;;;;;;5.10;3.83;;;16.00;59.80;;;;;;6190996;23;20024;-91
2023/08/20 00:07:01;;;;;;;4.22;3.42;;;16.00;57.60;;;;;;6190474;23;20480;-92
2023/08/20 00:09:34;;;;;;;3.45;2.78;;;15.90;57.90;;;;;;6142498;23;20021;-92
2023/08/20 00:12:05;;;;;;;3.97;2.78;;;16.00;59.20;;;;;;6141306;23;20096;-91
2023/08/20 00:14:54;;;;;;;4.28;3.28;;;15.90;61.20;;;;;;6143099;23;20013;-92
2023/08/20 00:17:20;;;;;;;6.38;3.08;;;16.00;61.50;;;;;;6165986;23;20341;-91
2023/08/20 00:19:51;;;;;;;;;;;15.90;62.80;;;;;;6166566;23;20437;-92
2023/08/20 00:22:31;;;;;;;;;;;;;;;;;;;;;
2023/08/20 00:24:59;;;;;;;4.82;3.05;;;15.90;64.20;;;;;;6190842;23;20350;-91
2023/08/20 00:27:25;;;;;;;6.32;3.22;;;16.70;65.40;;;;;;6190410;23;20430;-91
2023/08/20 00:29:53;;;;;;;3.67;3.05;;;15.80;62.30;;;;;;6165490;23;20064;-92
2023/08/20 00:32:27;;;;;;;4.18;3.22;;;14.70;60.30;;;;;;6166687;23;20346;-91
2023/08/20 00:34:53;;;;;;;4.68;2.90;;;15.70;61.20;;;;;;6165480;23;20016;-92
2023/08/20 00:37:27;;;;;;;7.85;4.10;;;15.70;61.70;;;;;;6165586;23;20023;-90
2023/08/20 00:39:53;;;;;;;2.75;2.42;;;14.80;59.30;;;;;;6142314;23;20070;-91
2023/08/20 00:42:26;;;;;;;4.05;3.03;;;15.60;61.00;;;;;;6164795;23;20021;-90
2023/08/20 00:44:56;;;;;;;4.43;2.78;;;15.60;61.80;;;;;;6189561;23;20122;-91
2023/08/20 00:47:31;;;;;;;4.45;2.25;;;15.60;63.90;;;;;;6165306;23;20446;-91
2023/08/20 00:50:00;;;;;;;4.80;2.60;;;14.90;63.70;;;;;;6141550;23;20021;-91
2023/08/20 00:52:29;;;;;;;7.13;2.78;;;14.90;64.90;;;;;;6164990;23;20020;-91
2023/08/20 00:54:55;;;;;;;6.72;2.75;;;15.50;66.30;;;;;;6164698;23;20027;-91
2023/08/20 00:57:28;;;;;;;3.78;2.80;;;15.60;65.70;;;;;;6165372;23;20025;-91
2023/08/20 00:59:58;;;;;;;2.55;2.20;;;15.60;64.60;;;;;;6190655;23;20107;-91
2023/08/20 01:02:28;;;;;;;4.43;2.58;;;15.50;65.80;;;;;;6141837;23;20051;-91
2023/08/20 01:04:54;;;;;;;3.28;2.50;;;15.50;67.10;;;;;;6166726;23;20074;-91
2023/08/20 01:07:31;;;;;;;4.95;3.05;;;15.50;67.60;;;;;;6190144;23;20017;-92
2023/08/20 01:10:20;;;;;;;3.10;2.35;;;15.50;67.50;;;;;;6165910;23;20086;-92
2023/08/20 01:12:47;;;;;;;4.50;2.85;;;15.40;67.40;;;;;;6164472;23;20023;-92
2023/08/20 01:15:17;;;;;;;6.07;2.80;;;16.40;68.10;;;;;;6165490;23;20031;-92
2023/08/20 01:17:48;;;;;;;4.50;2.40;;;15.50;68.70;;;;;;6190861;23;20017;-91
2023/08/20 01:20:19;;;;;;;4.65;2.58;;;15.40;69.90;;;;;;6164678;23;20020;-91
2023/08/20 01:22:45;;;;;;;7.20;2.70;;;15.30;70.00;;;;;;6166115;23;20028;-91
2023/08/20 01:25:34;;;;;;;3.95;2.47;;;15.30;68.30;;;;;;6164906;23;20016;-91
2023/08/20 01:28:20;;;;;;;4.05;3.75;;;15.30;66.60;;;;;;6189357;23;20012;-91
2023/08/20 01:30:54;;;;;;;7.15;3.90;;;15.20;58.80;;;;;;6189627;23;20013;-91
2023/08/20 01:33:29;;;;;;;4.38;3.50;;;14.70;60.80;;;;;;6141297;23;20047;-91
2023/08/20 01:35:55;;;;;;;5.32;3.10;;;14.40;62.50;;;;;;6164884;23;20012;-91
2023/08/20 01:38:24;;;;;;;4.17;2.83;;;15.00;64.90;;;;;;6164107;23;20308;-91
2023/08/20 01:40:56;;;;;;;3.95;2.85;;;14.90;65.70;;;;;;6165019;23;20254;-91
2023/08/20 01:43:27;;;;;;;4.50;3.13;;;15.00;67.20;;;;;;6139744;23;20508;-91
2023/08/20 01:45:55;;;;;;;4.80;3.10;;;14.90;69.40;;;;;;6141035;23;20021;-91
2023/08/20 01:48:26;;;;;;;7.18;3.10;;;15.00;71.70;;;;;;6164019;23;20099;-91
2023/08/20 01:50:55;;;;;;;7.90;3.05;;;15.00;72.00;;;;;;6164601;23;20021;-91
2023/08/20 01:53:21;;;;;;;7.57;3.92;;;14.90;72.40;;;;;;6164498;23;20095;-90
2023/08/20 01:55:49;;;;;;;6.47;3.40;;;15.00;72.90;;;;;;6164910;23;20052;-91
2023/08/20 01:58:25;;;;;;;10.00;3.40;;;15.00;70.60;;;;;;6164588;23;20017;-91
2023/08/20 02:00:54;;;;;;;5.72;3.58;;;14.90;67.70;;;;;;6164992;23;20067;-91
2023/08/20 02:03:27;;;;;;;7.10;3.60;;;14.80;66.00;;;;;;6188804;23;20091;-91
2023/08/20 02:06:05;;;;;;;;;;;;;;;;;;;;;
2023/08/20 02:08:34;;;;;;;5.72;2.78;;;14.80;67.10;;;;;;6188988;23;20031;-92
2023/08/20 02:11:03;;;;;;;5.57;3.13;;;14.80;67.60;;;;;;6164580;23;20017;-91
2023/08/20 02:13:32;;;;;;;5.20;2.97;;;14.80;66.50;;;;;;6189778;23;20089;-91
2023/08/20 02:16:04;;;;;;;4.85;2.55;;;14.70;66.60;;;;;;6189586;23;20021;-90
2023/08/20 02:18:36;;;;;;;4.88;2.95;;;14.70;66.50;;;;;;6165746;23;20024;-91
2023/08/20 02:21:02;;;;;;;4.32;3.17;;;14.70;68.80;;;;;;6139566;23;20096;-90
2023/08/20 02:23:33;;;;;;;;;;;14.70;69.40;;;;;;6164750;23;20027;-91
2023/08/20 02:26:02;;;;;;;4.93;2.45;;;14.70;72.00;;;;;;6163843;23;20222;-91
2023/08/20 02:28:30;;;;;;;6.43;3.75;;;14.70;67.50;;;;;;6140234;23;20023;-90
2023/08/20 02:31:03;;;;;;;6.60;3.28;;;13.70;64.00;;;;;;6164529;23;20400;-91
2023/08/20 02:33:29;;;;;;;2.90;2.70;;;14.70;62.90;;;;;;6140266;23;20021;-90
2023/08/20 02:35:55;;;;;;;3.30;3.00;;;14.60;64.00;;;;;;6139616;23;20023;-91
2023/08/20 02:38:23;;;;;;;5.82;3.33;;;14.60;65.00;;;;;;6164089;23;20155;-91
2023/08/20 02:40:54;;;;;;;4.13;3.60;;;14.60;64.70;;;;;;6163922;23;20038;-91
2023/08/20 02:43:22;;;;;;;5.13;3.75;;;14.40;64.20;;;;;;6163875;23;20036;-91
2023/08/20 02:45:50;;;;;;;4.85;3.83;;;14.40;65.20;;;;;;6163866;23;20055;-91
2023/08/20 02:48:16;;;;;;;5.43;4.13;;;14.50;67.10;;;;;;6162925;23;20027;-90
2023/08/20 02:50:49;;;;;;;8.13;4.85;;;14.40;69.30;;;;;;6163904;23;20024;-90
2023/08/20 02:53:17;;;;;;;7.25;4.00;;;14.40;70.50;;;;;;6115826;23;20098;-90
2023/08/20 02:55:45;;;;;;;7.28;4.55;;;14.30;72.20;;;;;;6188468;23;20071;-91
2023/08/20 02:58:14;;;;;;;7.97;5.50;;;14.40;74.20;;;;;;6163612;23;20016;-91
2023/08/20 03:00:45;;;;;;;9.20;5.43;;;13.60;76.70;;;;;;6188378;23;20357;-91
2023/08/20 03:03:11;;;;;;;8.52;4.97;;;14.40;79.90;;;;;;6188336;23;20318;-90
2023/08/20 03:05:37;;;;;;;9.77;5.85;;;14.60;80.70;;;;;;6163405;23;20079;-90
2023/08/20 03:08:08;;;;;;;9.27;5.80;;;14.40;80.30;;;;;;6163586;23;20025;-91
2023/08/20 03:10:39;;;;;;;10.63;6.50;;;14.40;80.50;;;;;;6188020;23;20335;-91
2023/08/20 03:13:12;;;;;;;6.60;5.65;;;14.40;82.20;;;;;;6164018;23;20110;-91
2023/08/20 03:15:46;;;;;;;10.70;5.97;;;14.60;86.40;;;;;;6141934;23;20044;-91
2023/08/20 03:18:20;;;;;;;10.48;6.05;;;14.50;85.40;;;;;;6164007;23;20106;-91
2023/08/20 03:20:46;;;;;;;6.85;5.70;;;14.70;84.40;;;;;;6187858;23;20084;-90
2023/08/20 03:23:17;;;;;;;7.90;6.20;;;14.50;83.50;;;;;;6139592;23;20024;-90
2023/08/20 03:25:43;;;;;;;7.45;6.45;;;14.50;84.00;;;;;;6164022;23;20461;-91
2023/08/20 03:28:16;;;;;;;7.60;5.97;;;14.50;86.60;;;;;;6163367;23;20020;-91
2023/08/20 03:30:54;;;;;;;7.95;5.05;;;14.70;87.00;;;;;;6188116;23;20016;-91
2023/08/20 03:33:23;;;;;;;11.45;7.07;;;14.50;86.80;;;;;;6162548;23;20027;-91
2023/08/20 03:35:51;;;;;;;6.68;5.32;;;14.60;86.00;;;;;;6162898;23;20070;-91
2023/08/20 03:38:20;;;;;;;8.45;6.18;;;14.60;84.40;;;;;;6162616;23;20020;-91
2023/08/20 03:40:54;;;;;;;8.93;6.25;;;15.10;80.60;;;;;;6188566;23;20024;-91
2023/08/20 03:43:20;;;;;;;7.60;5.55;;;14.50;80.50;;;;;;6162726;23;20393;-91
2023/08/20 03:45:53;;;;;;;8.23;5.05;;;14.40;81.90;;;;;;6188049;23;20024;-91
2023/08/20 03:48:19;;;;;;;8.02;5.15;;;14.50;81.60;;;;;;6162859;23;20345;-92
2023/08/20 03:50:50;;;;;;;8.02;6.03;;;14.40;81.50;;;;;;6113933;23;20027;-91
2023/08/20 03:53:18;;;;;;;6.07;4.97;;;14.20;80.80;;;;;;6163049;23;20448;-91
2023/08/20 03:55:51;;;;;;;5.43;4.88;;;14.40;80.20;;;;;;6163638;23;20048;-91
2023/08/20 03:58:23;;;;;;;6.82;5.32;;;14.30;80.20;;;;;;6162779;23;20016;-90
2023/08/20 04:00:51;;;;;;;6.82;6.18;;;14.20;81.10;;;;;;6164309;23;20560;-91
2023/08/20 04:03:22;;;;;;;11.43;5.65;;;14.30;82.00;;;;;;6162563;23;20095;-90
2023/08/20 04:05:51;;;;;;;8.23;6.32;;;14.30;83.00;;;;;;6139120;23;20017;-90
2023/08/20 04:08:19;;;;;;;9.35;5.97;;;14.20;84.10;;;;;;6164016;23;20069;-91
2023/08/20 04:10:47;;;;;;;9.93;6.25;;;14.20;83.80;;;;;;6163437;23;20033;-91
2023/08/20 04:13:13;;;;;;;7.45;5.72;;;14.20;82.20;;;;;;6139760;23;20453;-91
2023/08/20 04:15:41;;;;;;;9.13;6.65;;;14.20;80.90;;;;;;6162778;23;20040;-90
2023/08/20 04:18:15;;;;;;;9.70;6.65;;;14.20;80.90;;;;;;6164129;23;20028;-90
2023/08/20 04:20:44;;;;;;;8.57;6.35;;;14.20;81.60;;;;;;6162963;23;20017;-90
2023/08/20 04:23:09;;;;;;;13.73;6.38;;;14.20;81.70;;;;;;6164311;23;20071;-89
2023/08/20 04:25:41;;;;;;;6.37;5.77;;;14.10;81.70;;;;;;6162703;23;20025;-90
2023/08/20 04:28:09;;;;;;;9.05;6.15;;;14.10;82.10;;;;;;6140106;23;20255;-91
2023/08/20 04:30:38;;;;;;;9.25;6.85;;;15.30;83.80;;;;;;6163111;23;20499;-91
2023/08/20 04:33:09;;;;;;;6.82;5.80;;;14.20;84.10;;;;;;6163717;23;20096;-91
2023/08/20 04:35:40;;;;;;;6.45;5.53;;;14.20;84.60;;;;;;6164021;23;20050;-91
2023/08/20 04:38:09;;;;;;;7.75;5.32;;;14.00;84.70;;;;;;6189243;23;20013;-91
2023/08/20 04:40:37;;;;;;;7.53;5.95;;;14.10;83.70;;;;;;6163292;23;20027;-91
2023/08/20 04:43:03;;;;;;;6.68;5.38;;;14.20;83.40;;;;;;6163659;23;20024;-91
2023/08/20 04:45:29;;;;;;;5.97;5.43;;;14.00;83.50;;;;;;6187464;23;20056;-91
2023/08/20 04:48:00;;;;;;;8.40;5.35;;;14.10;84.30;;;;;;6162785;23;20013;-91
2023/08/20 04:50:35;;;;;;;7.00;5.50;;;13.40;84.00;;;;;;6164542;23;20017;-92
2023/08/20 04:53:08;;;;;;;7.60;6.00;;;14.10;84.40;;;;;;6141696;23;20017;-90
2023/08/20 04:56:04;;;;;;;5.82;5.22;;;14.00;83.90;;;;;;6116216;23;20017;-91
2023/08/20 04:58:35;;;;;;;7.65;5.35;;;14.00;81.30;;;;;;6166030;23;20091;-90
2023/08/20 05:01:08;;;;;;;6.95;6.22;;;14.10;83.20;;;;;;6140659;23;20437;-91
2023/08/20 05:03:44;;;;;;;7.95;6.38;;;14.00;84.70;;;;;;6164764;23;20075;-91
2023/08/20 05:06:10;;;;;;;7.07;6.38;;;14.10;88.10;;;;;;6165326;23;20017;-91
2023/08/20 05:08:36;;;;;;;8.68;6.32;;;14.20;89.10;;;;;;6188764;23;20013;-90
2023/08/20 05:11:06;;;;;;;8.65;6.60;;;14.10;90.00;;;;;;6164403;23;20023;-91
2023/08/20 05:13:39;;;;;;;8.88;6.05;;;14.90;90.40;;;;;;6139804;23;20032;-91
2023/08/20 05:16:08;;;;;;;7.63;6.85;;;14.10;90.50;;;;;;6164388;23;20066;-90
2023/08/20 05:18:36;;;;;;;11.02;7.93;;;14.20;91.20;;;;;;6164231;23;20046;-91
2023/08/20 05:21:02;;;;;;;7.93;7.13;;;13.80;91.60;;;;;;6188963;23;20095;-90
2023/08/20 05:23:38;;;;;;;9.23;7.85;;;14.30;92.80;;;;;;6139809;23;20048;-91
2023/08/20 05:26:08;;;;;;;7.95;6.97;;;14.40;93.40;;;;;;6166044;23;20020;-91
2023/08/20 05:28:47;;;;;;;8.38;7.25;;;14.50;94.40;;;;;;6163701;23;20020;-90
2023/08/20 05:31:15;;;;;;;12.82;8.95;;;14.70;95.60;;;;;;6119283;23;20032;-91
2023/08/20 05:33:49;;;;;;;12.50;9.57;;;14.90;96.30;;;;;;6164033;23;20077;-90
2023/08/20 05:36:24;;;;;;;11.85;10.15;;;14.90;96.20;;;;;;6166649;23;20345;-91
2023/08/20 05:39:00;;;;;;;16.23;11.40;;;15.00;95.40;;;;;;6164179;23;20024;-90
2023/08/20 05:41:26;;;;;;;14.30;11.13;;;15.70;95.30;;;;;;6189562;23;20019;-90
2023/08/20 05:44:01;;;;;;;16.40;11.93;;;15.90;95.00;;;;;;6162835;23;20127;-91
2023/08/20 05:46:40;;;;;;;13.75;11.90;;;16.20;94.40;;;;;;6164213;23;20480;-90
2023/08/20 05:49:11;;;;;;;13.15;10.85;;;16.50;93.70;;;;;;6164533;23;20056;-90
2023/08/20 05:51:36;;;;;;;11.75;9.93;;;16.70;92.80;;;;;;6163236;23;20020;-91
2023/08/20 05:54:03;;;;;;;12.25;10.95;;;16.90;92.00;;;;;;6189456;23;20026;-91
2023/08/20 05:56:31;;;;;;;14.40;9.68;;;18.20;91.00;;;;;;6165223;23;20063;-91
2023/08/20 05:59:12;;;;;;;10.38;9.27;;;17.20;90.00;;;;;;6164191;23;20032;-90
2023/08/20 06:01:40;;;;;;;11.90;9.43;;;17.50;86.80;;;;;;6138447;23;20079;-91
2023/08/20 06:04:06;;;;;;;15.05;9.82;;;17.50;85.50;;;;;;6188622;23;20012;-91
2023/08/20 06:06:32;;;;;;;10.43;9.30;;;17.50;84.30;;;;;;6164449;23;20055;-90
2023/08/20 06:09:03;;;;;;;12.80;9.32;;;16.90;82.30;;;;;;6188592;23;20125;-91
2023/08/20 06:11:29;;;;;;;12.48;9.57;;;17.80;82.60;;;;;;6164728;23;20511;-90
2023/08/20 06:13:59;;;;;;;10.55;8.02;;;17.90;83.70;;;;;;6188802;23;20017;-90
2023/08/20 06:16:37;;;;;;;9.85;7.80;;;18.00;82.30;;;;;;6189116;23;20073;-91
2023/08/20 06:19:05;;;;;;;12.77;7.70;;;18.20;80.90;;;;;;6163551;23;20024;-91
2023/08/20 06:21:46;;;;;;;10.70;7.47;;;18.30;79.50;;;;;;6164280;23;20024;-91
2023/08/20 06:24:12;;;;;;;12.50;7.70;;;19.10;77.50;;;;;;6164649;23;20528;-91
2023/08/20 06:26:49;;;;;;;9.18;6.78;;;18.60;76.00;;;;;;6189530;23;20021;-92
2023/08/20 06:29:17;;;;;;;13.45;7.95;;;18.60;77.20;;;;;;6164888;23;20099;-89
2023/08/20 06:31:45;;;;;;;12.95;6.15;;;17.80;76.60;;;;;;6187159;23;20059;-87
2023/08/20 06:34:17;;;;;;;9.13;6.18;;;18.90;74.10;;;;;;6140441;23;20021;-87
2023/08/20 06:36:43;;;;;;;10.98;6.35;;;19.00;72.90;;;;;;6187941;23;20023;-87
2023/08/20 06:39:09;;;;;;;12.75;6.00;;;19.00;71.70;;;;;;6188848;23;20341;-85
2023/08/20 06:41:35;;;;;;;9.05;5.85;;;19.20;70.60;;;;;;6163721;23;20016;-84
2023/08/20 06:44:02;;;;;;;8.70;5.80;;;19.30;67.20;;;;;;6162644;23;20023;-86
2023/08/20 06:46:28;;;;;;;12.30;5.78;;;19.40;68.90;;;;;;6162852;23;20373;-85
2023/08/20 06:48:53;;;;;;;8.65;5.13;;;19.60;69.90;;;;;;6161821;23;20017;-86
2023/08/20 06:51:25;;;;;;;8.07;4.88;;;19.60;64.80;;;;;;6161628;23;20021;-88
2023/08/20 06:53:51;;;;;;;12.95;6.45;;;19.70;62.00;;;;;;6186601;23;20017;-88
2023/08/20 06:56:16;;;;;;;11.45;4.72;;;19.70;59.50;;;;;;6163848;23;20023;-85
2023/08/20 06:58:43;;;;;;;13.57;6.32;;;20.00;59.10;;;;;;6162565;23;20095;-85
2023/08/20 07:01:09;;;;;;;8.80;5.82;;;20.10;54.90;;;;;;6162695;23;20024;-84
2023/08/20 07:03:39;;;;;;;;;;;20.10;50.70;;;;;;6214900;23;20341;-87
2023/08/20 07:06:06;;;;;;;12.43;4.88;;;20.20;50.40;;;;;;6162063;23;19943;-87
2023/08/20 07:08:39;;;;;;;8.18;4.28;;;20.30;51.90;;;;;;6163535;23;20056;-87
2023/08/20 07:11:05;;;;;;;9.60;4.85;;;20.30;51.40;;;;;;6164922;23;20008;-86
2023/08/20 07:13:31;;;;;;;;;;;20.50;45.20;;;;;;6188710;23;20017;-86
2023/08/20 07:15:56;;;;;;;8.57;4.68;;;20.50;36.60;;;;;;6186329;23;19922;-85
2023/08/20 07:18:27;;;;;;;8.00;4.82;;;20.50;40.40;;;;;;6215039;23;20025;-86
2023/08/20 07:20:57;;;;;;;7.82;4.07;;;20.60;35.60;;;;;;6187408;23;20016;-89
2023/08/20 07:23:32;;;;;;;10.93;4.72;;;19.80;32.60;;;;;;6189375;23;20020;-89
2023/08/20 07:26:06;;;;;;;10.52;4.70;;;20.70;32.20;;;;;;6187414;23;20049;-88
2023/08/20 07:31:16;;;;;;;7.13;4.28;;;20.80;33.90;;;;;;6188339;23;20453;-86
2023/08/20 07:33:55;;;;;;;8.93;5.22;;;20.90;37.00;;;;;;6162731;23;20025;-88
2023/08/20 07:36:21;;;;;;;6.40;4.45;;;21.00;33.90;;;;;;6162533;23;20016;-85
2023/08/20 07:38:48;;;;;;;12.18;4.88;;;21.00;33.80;;;;;;6187243;23;20092;-87
2023/08/20 07:41:14;;;;;;;8.75;5.15;;;21.50;32.70;;;;;;6138072;23;20028;-86
2023/08/20 07:43:40;;;;;;;7.18;3.88;;;21.10;29.60;;;;;;6161853;23;20016;-86
2023/08/20 07:46:07;;;;;;;21.77;4.68;;;21.10;28.40;;;;;;6161697;23;20021;-85
2023/08/20 07:48:33;;;;;;;12.10;4.38;;;21.20;30.00;;;;;;6187450;23;20017;-87
2023/08/20 07:50:59;;;;;;;;;;;21.20;28.80;;;;;;6162403;23;20075;-85
2023/08/20 07:53:26;;;;;;;9.77;3.58;;;21.20;25.30;;;;;;6162377;23;19920;-86
2023/08/20 07:55:52;;;;;;;10.52;4.90;;;21.40;27.20;;;;;;6161451;23;20016;-87
2023/08/20 07:58:18;;;;;;;8.65;4.13;;;21.40;27.60;;;;;;6187871;23;20013;-86
2023/08/20 08:00:46;;;;;;;12.70;3.85;;;21.40;21.70;;;;;;6161755;23;20035;-85
2023/08/20 08:03:14;;;;;;;9.98;4.15;;;21.50;19.80;;;;;;6161828;23;20205;-87
2023/08/20 08:05:40;;;;;;;6.05;3.88;;;21.60;15.50;;;;;;6163147;23;20096;-84
2023/08/20 08:08:06;;;;;;;;;;;21.70;16.70;;;;;;6186774;23;20027;-83
2023/08/20 08:10:32;;;;;;;10.48;3.42;;;21.70;4.30;;;;;;6162254;23;19959;-84
2023/08/20 08:12:57;;;;;;;5.88;2.85;;;21.70;14.80;;;;;;6137291;23;20074;-84
2023/08/20 08:15:23;;;;;;;5.00;2.70;;;21.70;14.30;;;;;;6137079;23;20096;-84
2023/08/20 08:17:49;;;;;;;8.18;3.05;;;21.70;10.40;;;;;;6187360;23;20021;-84
2023/08/20 08:20:17;;;;;;;10.50;3.28;;;21.80;10.00;;;;;;6186033;23;20027;-84
2023/08/20 08:22:43;;;;;;;9.40;3.70;;;21.70;3.90;;;;;;6138071;23;20028;-85
2023/08/20 08:25:09;;;;;;;9.45;3.28;;;21.80;1.00;;;;;;6188166;23;20036;-86
2023/08/20 08:27:37;;;;;;;10.55;2.85;;;21.80;1.00;;;;;;6139972;23;20021;-86
2023/08/20 08:30:03;;;;;;;9.30;3.25;;;21.80;1.00;;;;;;6113271;23;20028;-87
2023/08/20 08:32:31;;;;;;;12.65;3.30;;;21.80;1.00;;;;;;6164146;23;20013;-86
2023/08/20 08:34:57;;;;;;;7.72;2.72;;;22.00;1.00;;;;;;6163749;23;20048;-87
2023/08/20 08:37:26;;;;;;;7.80;2.42;;;22.00;1.00;;;;;;6164217;23;20021;-88
2023/08/20 08:39:51;;;;;;;7.75;2.75;;;22.00;1.00;;;;;;6189622;23;20383;-87
2023/08/20 08:42:22;;;;;;;4.68;2.15;;;22.00;1.00;;;;;;6187923;23;20108;-85
2023/08/20 08:44:49;;;;;;;7.72;3.22;;;22.20;1.00;;;;;;6188814;23;20020;-86
2023/08/20 08:47:15;;;;;;;9.20;2.60;;;22.10;1.00;;;;;;6163518;23;20104;-86
2023/08/20 08:49:44;;;;;;;;;;;22.10;1.00;;;;;;6164815;23;20020;-86
2023/08/20 08:52:11;;;;;;;6.30;1.90;;;22.10;1.00;;;;;;6188363;23;19920;-87
2023/08/20 08:54:36;;;;;;;9.95;2.25;;;22.20;1.00;;;;;;6164230;23;20096;-86
2023/08/20 08:57:03;;;;;;;8.23;2.50;;;22.30;1.00;;;;;;6187243;23;20059;-87
2023/08/20 08:59:28;;;;;;;6.32;2.55;;;22.30;1.00;;;;;;6164045;23;20495;-86
2023/08/20 09:01:56;;;;;;;6.60;1.95;;;22.20;1.00;;;;;;6163451;23;20052;-86
2023/08/20 09:04:22;;;;;;;7.43;1.98;;;22.30;1.00;;;;;;6188389;23;20025;-86
2023/08/20 09:06:51;;;;;;;6.47;2.10;;;22.30;1.00;;;;;;6189162;23;20017;-85
2023/08/20 09:09:17;;;;;;;5.90;2.30;;;22.30;1.00;;;;;;6163774;23;20024;-86
2023/08/20 09:11:43;;;;;;;6.68;1.83;;;22.30;1.00;;;;;;6163974;23;20016;-86
2023/08/20 09:14:24;;;;;;;8.32;1.77;;;22.40;1.00;;;;;;6214913;23;20337;-86
2023/08/20 09:17:01;;;;;;;4.95;2.80;;;22.50;1.00;;;;;;6188467;23;20020;-86
2023/08/20 09:19:37;;;;;;;4.03;1.90;;;22.40;1.00;;;;;;6196087;23;20040;-83
2023/08/20 09:22:06;;;;;;;4.78;2.05;;;22.50;1.00;;;;;;6191672;23;20067;-87
2023/08/20 09:24:52;;;;;;;6.22;2.63;;;22.50;1.00;;;;;;6162725;23;20074;-88
2023/08/20 09:27:21;;;;;;;5.03;2.13;;;22.60;1.00;;;;;;6163968;23;20203;-88
2023/08/20 09:29:53;;;;;;;6.80;2.00;;;22.60;1.00;;;;;;6188479;23;20020;-87
2023/08/20 09:32:24;;;;;;;2.78;2.08;;;22.60;1.00;;;;;;6163361;23;20021;-88
2023/08/20 09:34:51;;;;;;;4.70;2.25;;;22.60;1.00;;;;;;6188489;23;20017;-87
2023/08/20 09:37:21;;;;;;;7.63;2.25;;;23.60;1.00;;;;;;6163583;23;20388;-87
2023/08/20 09:39:47;;;;;;;5.40;2.83;;;22.80;1.00;;;;;;6163025;23;20020;-87
2023/08/20 09:42:14;;;;;;;8.02;2.67;;;22.80;1.00;;;;;;6187819;23;20017;-87
2023/08/20 09:44:41;;;;;;;3.78;2.17;;;22.90;1.00;;;;;;6138734;23;20023;-87
2023/08/20 09:47:12;;;;;;;6.18;2.20;;;23.00;1.00;;;;;;6187506;23;20119;-87
2023/08/20 09:49:42;;;;;;;5.30;2.53;;;23.00;1.00;;;;;;6164969;23;20083;-86
2023/08/20 09:52:17;;;;;;;3.72;2.00;;;23.10;1.00;;;;;;6163273;23;20028;-87
2023/08/20 09:54:46;;;;;;;9.40;2.30;;;23.10;1.00;;;;;;6163122;23;20017;-87
2023/08/20 09:57:38;;;;;;;5.97;2.05;;;23.20;1.00;;;;;;6161627;23;20027;-88
2023/08/20 10:00:12;;;;;;;5.07;2.03;;;23.20;1.00;;;;;;6187817;23;20021;-88
2023/08/20 10:02:38;;;;;;;6.70;2.55;;;23.20;1.00;;;;;;6172227;23;20048;-83
2023/08/20 10:05:06;;;;;;;4.22;1.80;;;23.20;1.00;;;;;;6192500;23;20025;-87
2023/08/20 10:07:32;;;;;;;4.57;2.83;;;23.30;1.00;;;;;;6163034;23;20024;-86
2023/08/20 10:10:04;;;;;;;3.70;2.05;;;23.30;1.00;;;;;;6187967;23;20013;-86
2023/08/20 10:12:30;;;;;;;10.50;2.10;;;23.30;1.00;;;;;;6187488;23;20021;-87
2023/08/20 10:14:57;;;;;;;5.25;1.98;;;23.30;1.00;;;;;;6188507;23;20017;-86
2023/08/20 10:17:24;;;;;;;6.00;1.52;;;23.20;1.00;;;;;;6163097;23;20524;-86
2023/08/20 10:19:55;;;;;;;3.70;1.60;;;23.30;1.00;;;;;;6187669;23;20099;-85
2023/08/20 10:22:21;;;;;;;5.38;1.83;;;23.30;1.00;;;;;;6213548;23;20537;-87
2023/08/20 10:24:53;;;;;;;3.45;1.90;;;23.40;1.00;;;;;;6187436;23;20056;-88
2023/08/20 10:27:32;;;;;;;10.23;2.65;;;23.50;99.90;;;;;;6162952;23;20020;-88
2023/08/20 10:30:04;;;;;;;7.53;2.13;;;23.40;99.90;;;;;;6187898;23;20020;-87
2023/08/20 10:32:52;;;;;;;4.13;1.60;;;23.50;99.90;;;;;;6162568;23;20593;-87
2023/08/20 10:35:26;;;;;;;4.18;1.73;;;23.60;99.90;;;;;;6162132;23;20017;-87
2023/08/20 10:38:13;;;;;;;6.45;1.98;;;23.60;99.90;;;;;;6162837;23;20032;-85
2023/08/20 10:40:48;;;;;;;5.28;1.25;;;23.70;99.90;;;;;;6162905;23;20024;-86
2023/08/20 10:43:29;;;;;;;3.90;1.60;;;23.70;99.90;;;;;;6161790;23;20020;-87
2023/08/20 10:46:04;;;;;;;2.42;1.38;;;23.70;99.90;;;;;;6162322;23;20024;-87
2023/08/20 10:48:34;;;;;;;7.45;1.92;;;23.90;99.90;;;;;;6187070;23;20043;-86
2023/08/20 10:51:26;;;;;;;5.93;1.83;;;23.90;99.90;;;;;;6188415;23;20012;-86
2023/08/20 10:54:02;;;;;;;6.10;1.95;;;24.00;99.90;;;;;;6163313;23;20023;-86
2023/08/20 10:56:44;;;;;;;4.95;2.13;;;23.80;99.90;;;;;;6162165;23;20038;-86
2023/08/20 10:59:34;;;;;;;6.10;1.27;;;24.10;99.90;;;;;;6163490;23;20469;-86
2023/08/20 11:02:01;;;;;;;3.50;1.35;;;24.20;99.90;;;;;;6187741;23;20393;-86
2023/08/20 11:04:34;;;;;;;7.43;1.73;;;24.30;99.90;;;;;;6187444;23;20052;-85
2023/08/20 11:07:04;;;;;;;3.70;1.55;;;24.40;99.90;;;;;;6187955;23;20024;-86
2023/08/20 11:09:30;;;;;;;2.97;1.63;;;24.40;99.90;;;;;;6187465;23;20020;-85
2023/08/20 11:11:57;;;;;;;3.65;1.33;;;24.60;99.90;;;;;;6137007;23;20020;-85
2023/08/20 11:14:24;;;;;;;4.65;2.40;;;24.50;99.90;;;;;;6162687;23;20024;-86
2023/08/20 11:16:50;;;;;;;11.60;2.08;;;24.60;99.90;;;;;;6163974;23;20365;-85
2023/08/20 11:19:23;;;;;;;7.13;1.75;;;24.70;1.00;;;;;;6187714;23;20020;-87
2023/08/20 11:21:50;;;;;;;6.80;1.80;;;24.70;99.90;;;;;;6138475;23;20437;-85
2023/08/20 11:24:17;;;;;;;4.53;1.40;;;24.70;99.90;;;;;;6188791;23;20023;-86
2023/08/20 11:26:47;;;;;;;2.70;1.40;;;24.60;99.90;;;;;;6162280;23;20067;-85
2023/08/20 11:29:21;;;;;;;4.70;2.00;;;24.60;99.90;;;;;;6161657;23;20020;-85
2023/08/20 11:31:50;;;;;;;4.10;1.48;;;24.70;99.90;;;;;;6187443;23;20338;-84
2023/08/20 11:34:20;;;;;;;3.25;1.58;;;24.80;99.90;;;;;;6163136;23;20123;-84
2023/08/20 11:36:51;;;;;;;3.72;1.55;;;24.90;1.00;;;;;;6187314;23;20349;-85
2023/08/20 11:39:17;;;;;;;4.10;1.10;;;25.00;99.90;;;;;;6163489;23;20016;-85
2023/08/20 11:41:46;;;;;;;;;;;25.00;64.70;;;;;;6163514;23;20067;-86
2023/08/20 11:44:20;;;;;;;3.08;1.30;;;25.10;99.90;;;;;;6163450;23;19927;-85
2023/08/20 11:46:46;;;;;;;3.97;1.25;;;25.10;99.90;;;;;;6163049;23;20024;-85
2023/08/20 11:49:26;;;;;;;;;;;25.10;1.00;;;;;;6163916;23;20074;-87
2023/08/20 11:51:52;;;;;;;2.13;1.10;;;25.20;1.00;;;;;;6163537;23;19916;-87
2023/08/20 11:54:20;;;;;;;;;;;25.20;99.90;;;;;;6188245;23;20025;-88
2023/08/20 11:56:50;;;;;;;2.20;1.23;;;25.20;93.40;;;;;;6163759;23;19915;-82
2023/08/20 11:59:19;;;;;;;3.33;1.48;;;25.10;1.00;;;;;;6190929;23;20013;-89
2023/08/20 12:02:11;;;;;;;4.13;1.25;;;25.20;99.90;;;;;;6165538;23;20013;-84
2023/08/20 12:04:37;;;;;;;2.58;0.82;;;25.30;1.00;;;;;;6209398;23;20116;-84
2023/08/20 12:07:03;;;;;;;;;;;25.40;99.90;;;;;;6191419;23;20466;-85
2023/08/20 12:09:31;;;;;;;2.93;0.87;;;25.40;1.00;;;;;;6165336;23;19999;-85
2023/08/20 12:11:57;;;;;;;2.63;1.10;;;25.50;99.90;;;;;;6217121;23;20274;-84
2023/08/20 12:14:23;;;;;;;2.42;1.00;;;25.60;99.90;;;;;;6165966;23;20048;-87
2023/08/20 12:16:52;;;;;;;;;;;25.60;99.90;;;;;;6191213;23;20024;-84
2023/08/20 12:19:18;;;;;;;2.63;0.95;;;25.60;12.40;;;;;;6166616;23;19923;-84
2023/08/20 12:21:44;;;;;;;2.38;1.00;;;25.60;99.90;;;;;;6188689;23;20020;-84
2023/08/20 12:24:10;;;;;;;;;;;25.70;1.00;;;;;;6166464;23;20024;-84
2023/08/20 12:26:40;;;;;;;6.10;1.13;;;25.50;99.90;;;;;;6165427;23;19916;-85
2023/08/20 12:29:06;;;;;;;3.65;1.20;;;25.40;99.90;;;;;;6191137;23;20020;-84
2023/08/20 12:31:32;;;;;;;3.20;1.20;;;25.30;1.00;;;;;;6191082;23;20070;-85
2023/08/20 12:33:59;;;;;;;2.97;1.10;;;25.30;1.00;;;;;;6191514;23;20074;-84
2023/08/20 12:36:24;;;;;;;4.55;1.48;;;25.40;99.90;;;;;;6165764;23;20016;-84
2023/08/20 12:38:50;;;;;;;;;;;25.40;1.00;;;;;;6164758;23;20327;-84
2023/08/20 12:41:16;;;;;;;2.95;1.15;;;25.40;99.90;;;;;;6166418;23;19958;-85
2023/08/20 12:43:41;;;;;;;;;;;25.50;1.00;;;;;;6165844;23;20404;-86
2023/08/20 12:46:10;;;;;;;5.13;1.58;;;25.50;99.90;;;;;;6192201;23;19919;-88
2023/08/20 12:48:50;;;;;;;2.53;1.10;;;25.60;99.90;;;;;;6167546;23;20016;-87
2023/08/20 12:51:21;;;;;;;3.22;1.00;;;25.70;1.00;;;;;;6166664;23;20020;-88
2023/08/20 12:53:50;;;;;;;4.63;1.20;;;25.70;99.90;;;;;;6166353;23;20024;-88
2023/08/20 12:56:18;;;;;;;;;;;25.80;57.60;;;;;;6192520;23;20027;-87
2023/08/20 12:58:44;;;;;;;4.35;1.50;;;25.90;99.90;;;;;;6166931;23;19916;-86
2023/08/20 13:01:13;;;;;;;;;;;25.00;1.00;;;;;;6166148;23;20078;-89
2023/08/20 13:03:39;;;;;;;4.05;1.10;;;25.00;99.90;;;;;;6190372;23;19915;-92
2023/08/20 13:06:05;;;;;;;;;;;26.00;99.90;;;;;;6165869;23;20020;-91
2023/08/20 13:08:41;;;;;;;3.92;1.17;;;25.50;23.90;;;;;;6189842;23;19998;-87
2023/08/20 13:11:11;;;;;;;3.47;1.52;;;25.40;99.90;;;;;;6167072;23;20013;-87